sensor_id;sensor_type;location;lat;lon;timestamp;pressure;altitude;pressure_sealevel;temperature;humidity
70684;BME280;58263;48.146;11.440;2023-04-19T00:02:19;96109.06;;;8.84;78.22
70684;BME280;58263;48.146;11.440;2023-04-19T00:04:44;96105.78;;;8.75;78.97
70684;BME280;58263;48.146;11.440;2023-04-19T00:07:10;96104.56;;;8.71;79.22
70684;BME280;58263;48.146;11.440;2023-04-19T00:09:35;96104.56;;;8.77;78.81
70684;BME280;58263;48.146;11.440;2023-04-19T00:12:01;96104.13;;;8.80;78.55
70684;BME280;58263;48.146;11.440;2023-04-19T00:14:27;96103.28;;;8.87;78.32
70684;BME280;58263;48.146;11.440;2023-04-19T00:16:52;96101.84;;;8.91;78.07
70684;BME280;58263;48.146;11.440;2023-04-19T00:19:17;96104.31;;;8.86;77.95
70684;BME280;58263;48.146;11.440;2023-04-19T00:21:43;96095.91;;;8.82;78.18
70684;BME280;58263;48.146;11.440;2023-04-19T00:24:08;96095.72;;;8.70;78.41
70684;BME280;58263;48.146;11.440;2023-04-19T00:26:33;96088.50;;;8.77;78.19
70684;BME280;58263;48.146;11.440;2023-04-19T00:28:59;96090.16;;;8.78;77.75
70684;BME280;58263;48.146;11.440;2023-04-19T00:31:24;96093.44;;;8.80;77.88
70684;BME280;58263;48.146;11.440;2023-04-19T00:33:50;96095.50;;;8.78;78.07
70684;BME280;58263;48.146;11.440;2023-04-19T00:36:15;96083.38;;;8.69;78.49
70684;BME280;58263;48.146;11.440;2023-04-19T00:38:40;96091.41;;;8.76;78.25
70684;BME280;58263;48.146;11.440;2023-04-19T00:41:05;96086.25;;;8.74;78.08
70684;BME280;58263;48.146;11.440;2023-04-19T00:43:31;96084.59;;;8.73;78.26
70684;BME280;58263;48.146;11.440;2023-04-19T00:45:56;96082.72;;;8.80;77.86
70684;BME280;58263;48.146;11.440;2023-04-19T00:48:22;96071.22;;;8.80;77.99
70684;BME280;58263;48.146;11.440;2023-04-19T00:50:49;96077.47;;;8.60;78.46
70684;BME280;58263;48.146;11.440;2023-04-19T00:53:14;96079.03;;;8.75;77.98
70684;BME280;58263;48.146;11.440;2023-04-19T00:55:41;96086.06;;;8.69;78.34
70684;BME280;58263;48.146;11.440;2023-04-19T00:58:07;96076.59;;;8.73;77.93
70684;BME280;58263;48.146;11.440;2023-04-19T01:00:33;96082.75;;;8.74;77.96
70684;BME280;58263;48.146;11.440;2023-04-19T01:02:59;96080.25;;;8.79;77.68
70684;BME280;58263;48.146;11.440;2023-04-19T01:05:24;96071.44;;;8.78;77.71
70684;BME280;58263;48.146;11.440;2023-04-19T01:07:49;96067.91;;;8.78;77.91
70684;BME280;58263;48.146;11.440;2023-04-19T01:10:15;96077.81;;;8.77;77.79
70684;BME280;58263;48.146;11.440;2023-04-19T01:12:40;96075.94;;;8.78;77.78
70684;BME280;58263;48.146;11.440;2023-04-19T01:15:06;96067.53;;;8.74;77.97
70684;BME280;58263;48.146;11.440;2023-04-19T01:17:32;96069.22;;;8.62;78.43
70684;BME280;58263;48.146;11.440;2023-04-19T01:19:59;96059.75;;;8.66;78.64
70684;BME280;58263;48.146;11.440;2023-04-19T01:22:25;96059.75;;;8.66;78.58
70684;BME280;58263;48.146;11.440;2023-04-19T01:24:50;96056.66;;;8.69;78.42
70684;BME280;58263;48.146;11.440;2023-04-19T01:27:15;96055.63;;;8.63;78.92
70684;BME280;58263;48.146;11.440;2023-04-19T01:29:42;96058.09;;;8.65;78.89
70684;BME280;58263;48.146;11.440;2023-04-19T01:32:07;96057.50;;;8.63;78.91
70684;BME280;58263;48.146;11.440;2023-04-19T01:34:32;96052.97;;;8.57;79.27
70684;BME280;58263;48.146;11.440;2023-04-19T01:36:57;96056.06;;;8.60;79.23
70684;BME280;58263;48.146;11.440;2023-04-19T01:39:24;96047.00;;;8.55;79.70
70684;BME280;58263;48.146;11.440;2023-04-19T01:41:51;96050.94;;;8.59;79.57
70684;BME280;58263;48.146;11.440;2023-04-19T01:44:16;96045.16;;;8.55;80.00
70684;BME280;58263;48.146;11.440;2023-04-19T01:46:41;96045.59;;;8.59;79.60
70684;BME280;58263;48.146;11.440;2023-04-19T01:49:07;96044.53;;;8.60;79.71
70684;BME280;58263;48.146;11.440;2023-04-19T01:51:33;96050.72;;;8.54;79.86
70684;BME280;58263;48.146;11.440;2023-04-19T01:53:58;96042.28;;;8.57;79.84
70684;BME280;58263;48.146;11.440;2023-04-19T01:56:23;96032.22;;;8.59;79.30
70684;BME280;58263;48.146;11.440;2023-04-19T01:58:49;96037.56;;;8.59;79.65
70684;BME280;58263;48.146;11.440;2023-04-19T02:01:14;96040.84;;;8.61;79.25
70684;BME280;58263;48.146;11.440;2023-04-19T02:03:40;96031.59;;;8.57;79.60
70684;BME280;58263;48.146;11.440;2023-04-19T02:06:09;96032.63;;;8.56;79.62
70684;BME280;58263;48.146;11.440;2023-04-19T02:08:35;96033.25;;;8.58;79.47
70684;BME280;58263;48.146;11.440;2023-04-19T02:11:08;96033.44;;;8.63;79.28
70684;BME280;58263;48.146;11.440;2023-04-19T02:13:34;96024.34;;;8.64;79.52
70684;BME280;58263;48.146;11.440;2023-04-19T02:15:59;96020.91;;;8.57;79.54
70684;BME280;58263;48.146;11.440;2023-04-19T02:18:28;96021.09;;;8.62;79.43
70684;BME280;58263;48.146;11.440;2023-04-19T02:20:54;96022.94;;;8.55;79.85
70684;BME280;58263;48.146;11.440;2023-04-19T02:23:19;96024.00;;;8.54;79.71
70684;BME280;58263;48.146;11.440;2023-04-19T02:25:45;96018.22;;;8.57;79.96
70684;BME280;58263;48.146;11.440;2023-04-19T02:28:10;96015.78;;;8.49;80.99
70684;BME280;58263;48.146;11.440;2023-04-19T02:30:36;96008.34;;;8.51;80.96
70684;BME280;58263;48.146;11.440;2023-04-19T02:33:01;96010.44;;;8.35;82.33
70684;BME280;58263;48.146;11.440;2023-04-19T02:35:27;96008.97;;;8.39;82.06
70684;BME280;58263;48.146;11.440;2023-04-19T02:37:52;96009.59;;;8.41;82.23
70684;BME280;58263;48.146;11.440;2023-04-19T02:40:17;96002.19;;;8.43;82.68
70684;BME280;58263;48.146;11.440;2023-04-19T02:42:43;96002.63;;;8.40;82.64
70684;BME280;58263;48.146;11.440;2023-04-19T02:45:08;96005.53;;;8.32;83.46
70684;BME280;58263;48.146;11.440;2023-04-19T02:47:34;95999.31;;;8.38;83.06
70684;BME280;58263;48.146;11.440;2023-04-19T02:49:59;96006.31;;;8.39;82.92
70684;BME280;58263;48.146;11.440;2023-04-19T02:52:25;95999.31;;;8.38;82.92
70684;BME280;58263;48.146;11.440;2023-04-19T02:54:50;96000.16;;;8.39;82.86
70684;BME280;58263;48.146;11.440;2023-04-19T02:57:16;96005.09;;;8.28;83.79
70684;BME280;58263;48.146;11.440;2023-04-19T02:59:41;95997.69;;;8.37;83.34
70684;BME280;58263;48.146;11.440;2023-04-19T03:02:06;95991.13;;;8.33;83.67
70684;BME280;58263;48.146;11.440;2023-04-19T03:04:31;95994.81;;;8.39;82.91
70684;BME280;58263;48.146;11.440;2023-04-19T03:06:58;95990.69;;;8.36;83.71
70684;BME280;58263;48.146;11.440;2023-04-19T03:09:24;95994.41;;;8.28;84.36
70684;BME280;58263;48.146;11.440;2023-04-19T03:11:49;95995.84;;;8.31;84.28
70684;BME280;58263;48.146;11.440;2023-04-19T03:14:15;95990.06;;;8.34;84.08
70684;BME280;58263;48.146;11.440;2023-04-19T03:16:40;95987.59;;;8.39;83.90
70684;BME280;58263;48.146;11.440;2023-04-19T03:19:05;95980.22;;;8.35;84.41
70684;BME280;58263;48.146;11.440;2023-04-19T03:21:31;95983.13;;;8.26;84.84
70684;BME280;58263;48.146;11.440;2023-04-19T03:23:56;95976.72;;;8.34;84.34
70684;BME280;58263;48.146;11.440;2023-04-19T03:26:21;95975.50;;;8.30;84.79
70684;BME280;58263;48.146;11.440;2023-04-19T03:28:47;95986.19;;;8.30;84.80
70684;BME280;58263;48.146;11.440;2023-04-19T03:31:12;95973.44;;;8.32;84.82
70684;BME280;58263;48.146;11.440;2023-04-19T03:33:38;95977.78;;;8.33;84.56
70684;BME280;58263;48.146;11.440;2023-04-19T03:36:03;95971.38;;;8.34;84.49
70684;BME280;58263;48.146;11.440;2023-04-19T03:38:29;95964.19;;;8.35;84.15
70684;BME280;58263;48.146;11.440;2023-04-19T03:40:54;95968.91;;;8.33;84.08
70684;BME280;58263;48.146;11.440;2023-04-19T03:43:21;95963.78;;;8.31;84.54
70684;BME280;58263;48.146;11.440;2023-04-19T03:45:47;95958.44;;;8.31;84.56
70684;BME280;58263;48.146;11.440;2023-04-19T03:48:12;95961.09;;;8.38;84.14
70684;BME280;58263;48.146;11.440;2023-04-19T03:50:37;95961.31;;;8.36;84.55
70684;BME280;58263;48.146;11.440;2023-04-19T03:53:03;95961.53;;;8.28;85.26
70684;BME280;58263;48.146;11.440;2023-04-19T03:55:29;95954.09;;;8.37;84.67
70684;BME280;58263;48.146;11.440;2023-04-19T03:57:55;95957.81;;;8.36;84.64
70684;BME280;58263;48.146;11.440;2023-04-19T04:00:20;95964.81;;;8.30;84.57
70684;BME280;58263;48.146;11.440;2023-04-19T04:02:46;95967.06;;;8.33;84.56
70684;BME280;58263;48.146;11.440;2023-04-19T04:05:11;95962.31;;;8.35;84.25
70684;BME280;58263;48.146;11.440;2023-04-19T04:07:36;95963.34;;;8.34;84.39
70684;BME280;58263;48.146;11.440;2023-04-19T04:10:02;95960.50;;;8.29;84.58
70684;BME280;58263;48.146;11.440;2023-04-19T04:12:27;95966.25;;;8.33;84.55
70684;BME280;58263;48.146;11.440;2023-04-19T04:14:52;95965.22;;;8.34;84.30
70684;BME280;58263;48.146;11.440;2023-04-19T04:17:18;95962.13;;;8.30;84.42
70684;BME280;58263;48.146;11.440;2023-04-19T04:19:43;95964.56;;;8.38;84.14
70684;BME280;58263;48.146;11.440;2023-04-19T04:22:09;95965.19;;;8.40;83.97
70684;BME280;58263;48.146;11.440;2023-04-19T04:24:40;95966.00;;;8.41;84.04
70684;BME280;58263;48.146;11.440;2023-04-19T04:27:07;95969.34;;;8.29;84.13
70684;BME280;58263;48.146;11.440;2023-04-19T04:29:37;95969.34;;;8.29;84.70
70684;BME280;58263;48.146;11.440;2023-04-19T04:32:03;95970.97;;;8.37;84.31
70684;BME280;58263;48.146;11.440;2023-04-19T04:34:28;95966.84;;;8.41;83.91
70684;BME280;58263;48.146;11.440;2023-04-19T04:36:53;95966.22;;;8.46;83.18
70684;BME280;58263;48.146;11.440;2023-04-19T04:39:19;95963.16;;;8.36;83.76
70684;BME280;58263;48.146;11.440;2023-04-19T04:41:44;95962.09;;;8.43;83.42
70684;BME280;58263;48.146;11.440;2023-04-19T04:44:10;95968.88;;;8.39;84.03
70684;BME280;58263;48.146;11.440;2023-04-19T04:46:36;95956.75;;;8.43;83.67
70684;BME280;58263;48.146;11.440;2023-04-19T04:49:01;95957.41;;;8.45;83.81
70684;BME280;58263;48.146;11.440;2023-04-19T04:51:27;95957.41;;;8.45;83.49
70684;BME280;58263;48.146;11.440;2023-04-19T04:53:52;95968.09;;;8.45;83.26
70684;BME280;58263;48.146;11.440;2023-04-19T04:56:18;95967.06;;;8.40;83.63
70684;BME280;58263;48.146;11.440;2023-04-19T04:58:43;95957.78;;;8.42;83.41
70684;BME280;58263;48.146;11.440;2023-04-19T05:01:09;95969.31;;;8.36;83.55
70684;BME280;58263;48.146;11.440;2023-04-19T05:03:34;95967.25;;;8.38;83.04
70684;BME280;58263;48.146;11.440;2023-04-19T05:06:00;95963.75;;;8.44;83.26
70684;BME280;58263;48.146;11.440;2023-04-19T05:08:25;95963.53;;;8.39;83.50
70684;BME280;58263;48.146;11.440;2023-04-19T05:10:51;95952.44;;;8.49;82.96
70684;BME280;58263;48.146;11.440;2023-04-19T05:13:16;95955.72;;;8.51;82.54
70684;BME280;58263;48.146;11.440;2023-04-19T05:15:42;95952.03;;;8.52;82.46
70684;BME280;58263;48.146;11.440;2023-04-19T05:18:07;95958.63;;;8.50;82.16
70684;BME280;58263;48.146;11.440;2023-04-19T05:20:32;95960.25;;;8.44;82.73
70684;BME280;58263;48.146;11.440;2023-04-19T05:22:58;95952.06;;;8.45;82.39
70684;BME280;58263;48.146;11.440;2023-04-19T05:25:25;95957.78;;;8.49;82.42
70684;BME280;58263;48.146;11.440;2023-04-19T05:27:50;95951.22;;;8.45;82.64
70684;BME280;58263;48.146;11.440;2023-04-19T05:30:15;95951.19;;;8.52;82.53
70684;BME280;58263;48.146;11.440;2023-04-19T05:32:41;95951.38;;;8.57;82.18
70684;BME280;58263;48.146;11.440;2023-04-19T05:35:07;95952.00;;;8.59;81.90
70684;BME280;58263;48.146;11.440;2023-04-19T05:37:32;95953.66;;;8.46;82.67
70684;BME280;58263;48.146;11.440;2023-04-19T05:39:57;95954.88;;;8.51;82.88
70684;BME280;58263;48.146;11.440;2023-04-19T05:42:23;95951.22;;;8.45;83.17
70684;BME280;58263;48.146;11.440;2023-04-19T05:44:48;95950.16;;;8.53;83.01
70684;BME280;58263;48.146;11.440;2023-04-19T05:47:13;95951.81;;;8.54;82.79
70684;BME280;58263;48.146;11.440;2023-04-19T05:49:39;95949.13;;;8.54;82.73
70684;BME280;58263;48.146;11.440;2023-04-19T05:52:04;95953.28;;;8.50;83.02
70684;BME280;58263;48.146;11.440;2023-04-19T05:54:30;95942.16;;;8.46;82.99
70684;BME280;58263;48.146;11.440;2023-04-19T05:56:59;95943.38;;;8.43;83.34
70684;BME280;58263;48.146;11.440;2023-04-19T05:59:25;95942.97;;;8.46;83.00
70684;BME280;58263;48.146;11.440;2023-04-19T06:01:50;95949.31;;;8.59;82.59
70684;BME280;58263;48.146;11.440;2023-04-19T06:04:16;95948.72;;;8.57;82.50
70684;BME280;58263;48.146;11.440;2023-04-19T06:06:42;95949.50;;;8.57;82.95
70684;BME280;58263;48.146;11.440;2023-04-19T06:09:07;95947.25;;;8.61;82.72
70684;BME280;58263;48.146;11.440;2023-04-19T06:11:32;95945.00;;;8.58;82.13
70684;BME280;58263;48.146;11.440;2023-04-19T06:13:58;95947.69;;;8.58;81.60
70684;BME280;58263;48.146;11.440;2023-04-19T06:16:23;95953.22;;;8.63;81.35
70684;BME280;58263;48.146;11.440;2023-04-19T06:18:48;95957.34;;;8.59;81.96
70684;BME280;58263;48.146;11.440;2023-04-19T06:21:14;95956.06;;;8.61;81.29
70684;BME280;58263;48.146;11.440;2023-04-19T06:23:40;95959.78;;;8.67;80.77
70684;BME280;58263;48.146;11.440;2023-04-19T06:26:05;95949.31;;;8.59;81.17
70684;BME280;58263;48.146;11.440;2023-04-19T06:28:30;95955.06;;;8.62;80.88
70684;BME280;58263;48.146;11.440;2023-04-19T06:30:56;95952.59;;;8.61;80.51
70684;BME280;58263;48.146;11.440;2023-04-19T06:33:21;95947.91;;;8.50;81.65
70684;BME280;58263;48.146;11.440;2023-04-19T06:35:46;95952.00;;;8.59;81.24
70684;BME280;58263;48.146;11.440;2023-04-19T06:38:12;95950.34;;;8.58;81.36
70684;BME280;58263;48.146;11.440;2023-04-19T06:40:37;95947.09;;;8.49;81.55
70684;BME280;58263;48.146;11.440;2023-04-19T06:43:02;95946.44;;;8.60;81.40
70684;BME280;58263;48.146;11.440;2023-04-19T06:45:27;95948.03;;;8.68;81.44
70684;BME280;58263;48.146;11.440;2023-04-19T06:47:53;95942.28;;;8.71;81.01
70684;BME280;58263;48.146;11.440;2023-04-19T06:50:18;95946.16;;;8.75;80.34
70684;BME280;58263;48.146;11.440;2023-04-19T06:52:44;95941.66;;;8.69;80.66
70684;BME280;58263;48.146;11.440;2023-04-19T06:55:09;95940.97;;;8.80;80.10
70684;BME280;58263;48.146;11.440;2023-04-19T06:57:35;95942.44;;;8.76;80.01
70684;BME280;58263;48.146;11.440;2023-04-19T07:00:00;95942.84;;;8.80;79.86
70684;BME280;58263;48.146;11.440;2023-04-19T07:02:25;95943.25;;;8.84;79.47
70684;BME280;58263;48.146;11.440;2023-04-19T07:04:51;95933.75;;;8.88;79.90
70684;BME280;58263;48.146;11.440;2023-04-19T07:07:16;95935.00;;;8.85;80.17
70684;BME280;58263;48.146;11.440;2023-04-19T07:09:42;95935.81;;;8.86;79.83
70684;BME280;58263;48.146;11.440;2023-04-19T07:12:07;95928.81;;;8.85;79.64
70684;BME280;58263;48.146;11.440;2023-04-19T07:14:32;95936.41;;;8.88;79.71
70684;BME280;58263;48.146;11.440;2023-04-19T07:16:58;95932.25;;;8.99;79.86
70684;BME280;58263;48.146;11.440;2023-04-19T07:19:23;95939.69;;;8.90;79.38
70684;BME280;58263;48.146;11.440;2023-04-19T07:21:49;95931.50;;;8.78;79.65
70684;BME280;58263;48.146;11.440;2023-04-19T07:24:15;95937.44;;;8.87;79.50
70684;BME280;58263;48.146;11.440;2023-04-19T07:26:41;95926.28;;;8.96;79.60
70684;BME280;58263;48.146;11.440;2023-04-19T07:29:06;95935.53;;;8.94;79.30
70684;BME280;58263;48.146;11.440;2023-04-19T07:31:31;95932.84;;;9.01;78.82
70684;BME280;58263;48.146;11.440;2023-04-19T07:34:06;95923.13;;;9.06;78.60
70684;BME280;58263;48.146;11.440;2023-04-19T07:36:31;95919.84;;;9.04;77.84
70684;BME280;58263;48.146;11.440;2023-04-19T07:38:59;95924.59;;;9.02;77.86
70684;BME280;58263;48.146;11.440;2023-04-19T07:41:24;95922.44;;;9.18;77.61
70684;BME280;58263;48.146;11.440;2023-04-19T07:43:49;95922.53;;;9.04;78.22
70684;BME280;58263;48.146;11.440;2023-04-19T07:46:14;95917.22;;;8.98;78.51
70684;BME280;58263;48.146;11.440;2023-04-19T07:48:40;95911.00;;;9.04;78.20
70684;BME280;58263;48.146;11.440;2023-04-19T07:51:10;95912.31;;;9.20;78.21
70684;BME280;58263;48.146;11.440;2023-04-19T07:53:36;95907.63;;;9.15;77.59
70684;BME280;58263;48.146;11.440;2023-04-19T07:56:01;95907.72;;;9.27;77.16
70684;BME280;58263;48.146;11.440;2023-04-19T07:58:27;95910.88;;;9.49;77.86
70684;BME280;58263;48.146;11.440;2023-04-19T08:00:52;95910.38;;;9.59;77.08
70684;BME280;58263;48.146;11.440;2023-04-19T08:03:18;95912.03;;;9.78;76.71
70684;BME280;58263;48.146;11.440;2023-04-19T08:05:43;95913.78;;;9.91;76.59
70684;BME280;58263;48.146;11.440;2023-04-19T08:08:08;95906.84;;;10.02;75.07
70684;BME280;58263;48.146;11.440;2023-04-19T08:10:34;95908.56;;;10.34;74.23
70684;BME280;58263;48.146;11.440;2023-04-19T08:13:00;95901.19;;;10.47;73.80
70684;BME280;58263;48.146;11.440;2023-04-19T08:15:25;95904.22;;;10.51;73.08
70684;BME280;58263;48.146;11.440;2023-04-19T08:17:50;95904.06;;;10.64;73.26
70684;BME280;58263;48.146;11.440;2023-04-19T08:20:16;95901.28;;;10.71;73.02
70684;BME280;58263;48.146;11.440;2023-04-19T08:22:41;95903.66;;;10.79;71.87
70684;BME280;58263;48.146;11.440;2023-04-19T08:25:07;95902.63;;;10.80;72.21
70684;BME280;58263;48.146;11.440;2023-04-19T08:27:34;95895.16;;;10.82;72.11
70684;BME280;58263;48.146;11.440;2023-04-19T08:29:59;95899.28;;;10.97;71.51
70684;BME280;58263;48.146;11.440;2023-04-19T08:32:24;95897.09;;;11.18;71.25
70684;BME280;58263;48.146;11.440;2023-04-19T08:34:50;95889.84;;;11.06;70.06
70684;BME280;58263;48.146;11.440;2023-04-19T08:37:15;95898.63;;;11.13;70.29
70684;BME280;58263;48.146;11.440;2023-04-19T08:39:40;95896.19;;;11.24;69.88
70684;BME280;58263;48.146;11.440;2023-04-19T08:42:07;95892.13;;;11.33;69.88
70684;BME280;58263;48.146;11.440;2023-04-19T08:44:34;95888.81;;;11.19;70.29
70684;BME280;58263;48.146;11.440;2023-04-19T08:47:00;95883.03;;;11.58;69.29
70684;BME280;58263;48.146;11.440;2023-04-19T08:49:26;95885.63;;;11.64;69.18
70684;BME280;58263;48.146;11.440;2023-04-19T08:51:59;95886.19;;;11.55;69.53
70684;BME280;58263;48.146;11.440;2023-04-19T08:54:28;95889.47;;;11.57;68.75
70684;BME280;58263;48.146;11.440;2023-04-19T08:56:54;95884.66;;;11.71;68.87
70684;BME280;58263;48.146;11.440;2023-04-19T08:59:19;95879.41;;;11.64;68.16
70684;BME280;58263;48.146;11.440;2023-04-19T09:01:45;95871.59;;;11.74;68.99
70684;BME280;58263;48.146;11.440;2023-04-19T09:04:10;95873.72;;;11.60;68.02
70684;BME280;58263;48.146;11.440;2023-04-19T09:06:36;95875.19;;;11.68;68.11
70684;BME280;58263;48.146;11.440;2023-04-19T09:09:20;95873.56;;;11.91;67.20
70684;BME280;58263;48.146;11.440;2023-04-19T09:11:45;95871.81;;;12.08;66.47
70684;BME280;58263;48.146;11.440;2023-04-19T09:14:14;95864.44;;;12.15;65.92
70684;BME280;58263;48.146;11.440;2023-04-19T09:16:41;95873.09;;;11.94;65.42
70684;BME280;58263;48.146;11.440;2023-04-19T09:19:06;95869.75;;;11.98;65.54
70684;BME280;58263;48.146;11.440;2023-04-19T09:21:34;95865.66;;;11.96;66.23
70684;BME280;58263;48.146;11.440;2023-04-19T09:24:00;95859.06;;;11.92;64.74
70684;BME280;58263;48.146;11.440;2023-04-19T09:26:27;95859.41;;;12.19;65.27
70684;BME280;58263;48.146;11.440;2023-04-19T09:29:00;95855.09;;;12.06;63.65
70684;BME280;58263;48.146;11.440;2023-04-19T09:31:30;95854.47;;;12.28;64.29
70684;BME280;58263;48.146;11.440;2023-04-19T09:33:56;95842.31;;;12.25;63.50
70684;BME280;58263;48.146;11.440;2023-04-19T09:36:29;95832.66;;;12.12;63.53
70684;BME280;58263;48.146;11.440;2023-04-19T09:38:56;95841.44;;;11.96;65.04
70684;BME280;58263;48.146;11.440;2023-04-19T09:41:21;95838.13;;;12.17;64.26
70684;BME280;58263;48.146;11.440;2023-04-19T09:43:47;95832.41;;;12.14;66.23
70684;BME280;58263;48.146;11.440;2023-04-19T09:51:47;95827.59;;;12.16;65.05
70684;BME280;58263;48.146;11.440;2023-04-19T09:54:13;95821.63;;;12.26;64.36
70684;BME280;58263;48.146;11.440;2023-04-19T09:56:40;95817.06;;;12.26;64.27
70684;BME280;58263;48.146;11.440;2023-04-19T09:59:07;95817.09;;;12.43;64.93
70684;BME280;58263;48.146;11.440;2023-04-19T10:01:34;95813.59;;;12.43;63.93
70684;BME280;58263;48.146;11.440;2023-04-19T10:04:05;95821.88;;;12.53;63.52
70684;BME280;58263;48.146;11.440;2023-04-19T10:06:31;95805.91;;;12.63;64.01
70684;BME280;58263;48.146;11.440;2023-04-19T10:08:59;95800.56;;;12.80;62.66
70684;BME280;58263;48.146;11.440;2023-04-19T10:11:30;95801.50;;;12.74;63.31
70684;BME280;58263;48.146;11.440;2023-04-19T10:13:59;95797.41;;;12.72;63.22
70684;BME280;58263;48.146;11.440;2023-04-19T10:16:26;95799.91;;;12.44;64.16
70684;BME280;58263;48.146;11.440;2023-04-19T10:18:51;95799.34;;;12.42;64.41
70684;BME280;58263;48.146;11.440;2023-04-19T10:21:18;95805.19;;;12.39;64.16
70684;BME280;58263;48.146;11.440;2023-04-19T10:23:45;95791.91;;;12.32;63.69
70684;BME280;58263;48.146;11.440;2023-04-19T10:26:11;95782.41;;;12.76;63.81
70684;BME280;58263;48.146;11.440;2023-04-19T10:28:36;95781.72;;;13.14;62.86
70684;BME280;58263;48.146;11.440;2023-04-19T10:31:03;95780.63;;;13.49;61.29
70684;BME280;58263;48.146;11.440;2023-04-19T10:33:39;95776.38;;;13.53;60.03
70684;BME280;58263;48.146;11.440;2023-04-19T10:36:08;95770.06;;;13.87;59.33
70684;BME280;58263;48.146;11.440;2023-04-19T10:38:42;95770.81;;;13.82;59.99
70684;BME280;58263;48.146;11.440;2023-04-19T10:41:09;95774.25;;;13.56;59.99
70684;BME280;58263;48.146;11.440;2023-04-19T10:43:40;95778.75;;;13.33;60.83
70684;BME280;58263;48.146;11.440;2023-04-19T10:46:06;95765.31;;;12.82;61.76
70684;BME280;58263;48.146;11.440;2023-04-19T10:48:37;95774.44;;;12.64;61.91
70684;BME280;58263;48.146;11.440;2023-04-19T10:51:20;95766.19;;;12.71;61.73
70684;BME280;58263;48.146;11.440;2023-04-19T10:56:17;95755.16;;;12.38;62.88
70684;BME280;58263;48.146;11.440;2023-04-19T11:01:40;95750.72;;;12.32;62.61
70684;BME280;58263;48.146;11.440;2023-04-19T11:07:01;95756.47;;;11.95;63.76
70684;BME280;58263;48.146;11.440;2023-04-19T11:09:34;95735.00;;;12.12;63.44
70684;BME280;58263;48.146;11.440;2023-04-19T11:12:03;95743.72;;;12.02;64.01
70684;BME280;58263;48.146;11.440;2023-04-19T11:14:56;95734.31;;;12.16;63.62
70684;BME280;58263;48.146;11.440;2023-04-19T11:17:24;95736.09;;;12.11;64.70
70684;BME280;58263;48.146;11.440;2023-04-19T11:20:16;95740.84;;;12.21;63.54
70684;BME280;58263;48.146;11.440;2023-04-19T11:22:45;95726.63;;;12.08;65.10
70684;BME280;58263;48.146;11.440;2023-04-19T11:25:18;95723.41;;;12.23;63.37
70684;BME280;58263;48.146;11.440;2023-04-19T11:27:46;95721.78;;;12.22;64.19
70684;BME280;58263;48.146;11.440;2023-04-19T11:30:21;95723.81;;;12.32;63.69
70684;BME280;58263;48.146;11.440;2023-04-19T11:32:53;95715.84;;;12.37;63.01
70684;BME280;58263;48.146;11.440;2023-04-19T11:35:26;95709.03;;;12.46;63.17
70684;BME280;58263;48.146;11.440;2023-04-19T11:37:53;95712.53;;;12.64;62.31
70684;BME280;58263;48.146;11.440;2023-04-19T11:40:21;95709.34;;;12.67;62.26
70684;BME280;58263;48.146;11.440;2023-04-19T11:42:56;95709.59;;;12.65;63.67
70684;BME280;58263;48.146;11.440;2023-04-19T11:45:31;95704.63;;;12.74;62.93
70684;BME280;58263;48.146;11.440;2023-04-19T11:47:57;95708.06;;;12.70;62.87
70684;BME280;58263;48.146;11.440;2023-04-19T11:50:43;95712.75;;;12.45;63.69
70684;BME280;58263;48.146;11.440;2023-04-19T11:53:20;95713.34;;;12.18;64.97
70684;BME280;58263;48.146;11.440;2023-04-19T11:55:51;95714.72;;;12.04;65.80
70684;BME280;58263;48.146;11.440;2023-04-19T11:58:57;95709.50;;;11.86;66.99
70684;BME280;58263;48.146;11.440;2023-04-19T12:01:18;95726.84;;;11.66;68.77
70684;BME280;58263;48.146;11.440;2023-04-19T12:03:45;95713.09;;;11.50;68.66
70684;BME280;58263;48.146;11.440;2023-04-19T12:06:13;95723.38;;;11.54;68.66
70684;BME280;58263;48.146;11.440;2023-04-19T12:08:42;95716.66;;;11.15;72.02
70684;BME280;58263;48.146;11.440;2023-04-19T12:11:08;95715.94;;;11.08;71.75
70684;BME280;58263;48.146;11.440;2023-04-19T12:13:34;95718.19;;;11.11;71.59
70684;BME280;58263;48.146;11.440;2023-04-19T12:16:00;95709.84;;;11.37;68.84
70684;BME280;58263;48.146;11.440;2023-04-19T12:18:26;95709.34;;;11.52;68.67
70684;BME280;58263;48.146;11.440;2023-04-19T12:20:52;95701.19;;;11.46;68.82
70684;BME280;58263;48.146;11.440;2023-04-19T12:23:19;95707.53;;;11.40;70.65
70684;BME280;58263;48.146;11.440;2023-04-19T12:25:47;95700.31;;;11.29;69.90
70684;BME280;58263;48.146;11.440;2023-04-19T12:28:13;95700.03;;;11.42;69.92
70684;BME280;58263;48.146;11.440;2023-04-19T12:30:39;95706.25;;;11.19;71.54
70684;BME280;58263;48.146;11.440;2023-04-19T12:33:06;95702.53;;;11.20;71.26
70684;BME280;58263;48.146;11.440;2023-04-19T12:35:32;95709.41;;;11.28;71.23
70684;BME280;58263;48.146;11.440;2023-04-19T12:37:58;95703.59;;;11.07;72.26
70684;BME280;58263;48.146;11.440;2023-04-19T12:40:25;95702.53;;;11.08;73.60
70684;BME280;58263;48.146;11.440;2023-04-19T12:42:51;95704.03;;;11.04;73.36
70684;BME280;58263;48.146;11.440;2023-04-19T12:45:18;95691.91;;;11.13;72.43
70684;BME280;58263;48.146;11.440;2023-04-19T12:47:44;95696.22;;;11.03;72.00
70684;BME280;58263;48.146;11.440;2023-04-19T12:50:12;95691.47;;;10.93;72.36
70684;BME280;58263;48.146;11.440;2023-04-19T12:52:38;95693.81;;;10.77;73.83
70684;BME280;58263;48.146;11.440;2023-04-19T12:55:04;95693.44;;;10.86;73.56
70684;BME280;58263;48.146;11.440;2023-04-19T12:57:30;95700.22;;;10.88;74.02
70684;BME280;58263;48.146;11.440;2023-04-19T12:59:56;95692.75;;;10.90;74.60
70684;BME280;58263;48.146;11.440;2023-04-19T13:02:21;95693.09;;;10.94;73.85
70684;BME280;58263;48.146;11.440;2023-04-19T13:04:46;95691.22;;;10.59;74.45
70684;BME280;58263;48.146;11.440;2023-04-19T13:07:12;95697.50;;;10.53;74.73
70684;BME280;58263;48.146;11.440;2023-04-19T13:09:37;95690.41;;;10.70;74.53